createdAt,value
2019-06-20T00:02:12.055Z,4.03
2019-06-20T00:04:40.768Z,3.90
2019-06-20T00:07:09.432Z,3.40
2019-06-20T00:09:38.108Z,3.03
2019-06-20T00:12:06.800Z,3.50
2019-06-20T00:14:35.550Z,3.23
2019-06-20T00:17:04.330Z,4.07
2019-06-20T00:19:33.070Z,3.87
2019-06-20T00:22:01.739Z,3.27
2019-06-20T00:24:30.444Z,3.53
2019-06-20T00:26:59.111Z,3.43
2019-06-20T00:29:27.789Z,3.73
2019-06-20T00:31:56.487Z,3.60
2019-06-20T00:34:25.163Z,3.50
2019-06-20T00:36:53.901Z,3.30
2019-06-20T00:39:22.605Z,3.50
2019-06-20T00:41:51.265Z,3.60
2019-06-20T00:44:20.039Z,4.03
2019-06-20T00:46:48.708Z,4.17
2019-06-20T00:49:17.379Z,3.53
2019-06-20T00:51:46.100Z,3.90
2019-06-20T00:54:14.821Z,4.13
2019-06-20T00:56:43.546Z,3.73
2019-06-20T00:59:12.293Z,3.33
2019-06-20T01:01:41.038Z,3.77
2019-06-20T01:04:09.735Z,4.17
2019-06-20T01:06:38.422Z,3.67
2019-06-20T01:09:09.042Z,4.13
2019-06-20T01:11:37.779Z,3.20
2019-06-20T01:14:06.505Z,4.50
2019-06-20T01:16:35.187Z,3.60
2019-06-20T01:19:03.891Z,3.20
2019-06-20T01:21:32.551Z,3.30
2019-06-20T01:24:01.238Z,2.93
2019-06-20T01:26:29.927Z,3.90
2019-06-20T01:28:58.611Z,3.73
2019-06-20T01:31:27.341Z,3.10
2019-06-20T01:33:56.034Z,4.20
2019-06-20T01:36:24.707Z,3.30
2019-06-20T01:38:53.507Z,3.23
2019-06-20T01:41:22.755Z,3.70
2019-06-20T01:43:51.437Z,3.80
2019-06-20T01:46:20.089Z,3.47
2019-06-20T01:48:48.879Z,2.97
2019-06-20T01:51:17.537Z,3.30
2019-06-20T01:53:46.210Z,4.03
2019-06-20T01:56:14.919Z,3.27
2019-06-20T01:58:43.603Z,3.73
2019-06-20T02:01:12.294Z,3.40
2019-06-20T02:03:40.965Z,3.50
2019-06-20T02:06:09.628Z,3.80
2019-06-20T02:08:38.334Z,3.97
2019-06-20T02:11:07.002Z,3.20
2019-06-20T02:13:35.661Z,3.70
2019-06-20T02:16:04.671Z,3.77
2019-06-20T02:18:33.364Z,3.13
2019-06-20T02:21:02.063Z,4.27
2019-06-20T02:23:30.748Z,3.77
2019-06-20T02:25:59.452Z,3.40
2019-06-20T02:28:28.193Z,3.70
2019-06-20T02:30:56.852Z,4.30
2019-06-20T02:33:25.531Z,5.10
2019-06-20T02:35:56.475Z,4.00
2019-06-20T02:38:25.189Z,4.60
2019-06-20T02:40:53.863Z,3.80
2019-06-20T02:43:23.051Z,4.50
2019-06-20T02:45:51.725Z,3.60
2019-06-20T02:48:20.430Z,4.90
2019-06-20T02:50:49.237Z,4.97
2019-06-20T02:53:17.939Z,4.43
2019-06-20T02:55:46.602Z,4.47
2019-06-20T02:58:15.323Z,5.37
2019-06-20T03:00:55.838Z,4.57
2019-06-20T03:03:25.186Z,5.57
2019-06-20T03:05:55.404Z,4.67
2019-06-20T03:08:24.094Z,5.30
2019-06-20T03:10:52.770Z,5.33
2019-06-20T03:13:21.448Z,5.70
2019-06-20T03:15:50.267Z,5.70
2019-06-20T03:18:19.075Z,5.60
2019-06-20T03:20:47.760Z,6.90
2019-06-20T03:23:16.843Z,7.33
2019-06-20T03:25:45.633Z,7.37
2019-06-20T03:28:14.309Z,7.10
2019-06-20T03:30:43.004Z,7.30
2019-06-20T03:33:11.744Z,8.40
2019-06-20T03:35:40.554Z,7.87
2019-06-20T03:38:09.474Z,7.43
2019-06-20T03:40:38.299Z,8.17
2019-06-20T03:43:06.966Z,8.17
2019-06-20T03:45:35.960Z,9.60
2019-06-20T03:48:04.853Z,9.07
2019-06-20T03:50:33.869Z,8.47
2019-06-20T03:53:02.762Z,9.57
2019-06-20T03:55:34.685Z,9.20
2019-06-20T03:58:04.013Z,11.07
2019-06-20T04:00:36.755Z,10.23
2019-06-20T04:03:06.056Z,9.77
2019-06-20T04:05:35.374Z,11.50
2019-06-20T04:08:04.127Z,12.27
2019-06-20T04:10:32.923Z,12.13
2019-06-20T04:13:01.839Z,11.97
2019-06-20T04:15:30.521Z,11.60
2019-06-20T04:17:59.554Z,11.93
2019-06-20T04:20:28.212Z,12.30
2019-06-20T04:22:56.924Z,13.27
2019-06-20T04:25:25.786Z,13.00
2019-06-20T04:27:54.494Z,11.60
2019-06-20T04:30:23.271Z,12.63
2019-06-20T04:32:51.983Z,13.80
2019-06-20T04:35:20.681Z,12.50
2019-06-20T04:37:49.821Z,14.50
2019-06-20T04:40:18.808Z,13.57
2019-06-20T04:42:47.504Z,12.03
2019-06-20T04:45:35.506Z,13.70
2019-06-20T04:48:05.019Z,13.50
2019-06-20T04:50:34.256Z,13.10
2019-06-20T04:53:02.998Z,13.83
2019-06-20T04:55:31.716Z,13.47
2019-06-20T04:58:00.445Z,12.60
2019-06-20T05:00:29.111Z,15.07
2019-06-20T05:02:57.848Z,15.00
2019-06-20T05:05:26.578Z,13.50
2019-06-20T05:07:55.279Z,15.57
2019-06-20T05:10:23.955Z,14.67
2019-06-20T05:12:55.818Z,15.10
2019-06-20T05:15:23.253Z,14.27
2019-06-20T05:17:52.006Z,14.63
2019-06-20T05:20:20.679Z,15.33
2019-06-20T05:22:49.603Z,15.57
2019-06-20T05:25:18.338Z,15.10
2019-06-20T05:27:47.146Z,16.80
2019-06-20T05:30:15.836Z,16.73
2019-06-20T05:32:44.527Z,17.40
2019-06-20T05:35:13.200Z,17.80
2019-06-20T05:37:41.904Z,16.97
2019-06-20T05:40:11.197Z,19.37
2019-06-20T05:42:39.904Z,18.00
2019-06-20T05:45:08.838Z,16.80
2019-06-20T05:47:37.527Z,16.27
2019-06-20T05:50:10.163Z,16.80
2019-06-20T05:52:38.871Z,17.13
2019-06-20T05:55:07.852Z,17.90
2019-06-20T05:57:36.559Z,18.13
2019-06-20T06:00:10.369Z,18.30
2019-06-20T06:02:40.201Z,20.20
2019-06-20T06:05:09.602Z,20.43
2019-06-20T06:07:38.353Z,19.80
2019-06-20T06:10:12.104Z,19.80
2019-06-20T06:12:40.831Z,22.70
2019-06-20T06:15:11.313Z,19.40
2019-06-20T06:17:40.079Z,21.60
2019-06-20T06:20:10.723Z,23.27
2019-06-20T06:22:39.641Z,21.97
2019-06-20T06:25:08.783Z,20.67
2019-06-20T06:27:40.104Z,21.50
2019-06-20T06:30:10.946Z,22.57
2019-06-20T06:32:40.969Z,20.70
2019-06-20T06:35:10.175Z,20.80
2019-06-20T06:37:39.055Z,23.03
2019-06-20T06:40:09.852Z,23.43
2019-06-20T06:42:38.786Z,21.07
2019-06-20T06:45:11.368Z,23.83
2019-06-20T06:47:40.076Z,21.80
2019-06-20T06:50:09.772Z,22.40
2019-06-20T06:52:38.511Z,20.10
2019-06-20T06:55:07.913Z,20.10
2019-06-20T06:57:36.627Z,18.93
2019-06-20T07:00:08.323Z,19.93
2019-06-20T07:02:37.072Z,21.63
2019-06-20T07:05:07.332Z,20.57
2019-06-20T07:07:36.027Z,20.60
2019-06-20T07:10:07.029Z,20.37
2019-06-20T07:12:35.737Z,19.17
2019-06-20T07:15:06.582Z,19.60
2019-06-20T07:17:35.608Z,20.00
2019-06-20T07:20:06.843Z,20.73
2019-06-20T07:22:36.350Z,18.17
2019-06-20T07:25:07.744Z,17.70
2019-06-20T07:27:36.440Z,16.00
2019-06-20T07:30:07.327Z,16.50
2019-06-20T07:32:36.105Z,17.33
2019-06-20T07:35:06.598Z,18.70
2019-06-20T07:37:35.318Z,19.93
2019-06-20T07:40:09.100Z,20.50
2019-06-20T07:42:38.007Z,19.07
2019-06-20T07:45:09.201Z,18.10
2019-06-20T07:47:38.699Z,17.50
2019-06-20T07:50:09.211Z,17.27
2019-06-20T07:52:37.955Z,17.50
2019-06-20T07:55:08.647Z,16.43
2019-06-20T07:57:37.412Z,17.20
2019-06-20T08:00:08.084Z,17.30
2019-06-20T08:02:36.896Z,16.80
2019-06-20T08:05:06.883Z,16.80
2019-06-20T08:07:35.796Z,16.63
2019-06-20T08:10:07.470Z,16.20
2019-06-20T08:12:36.270Z,17.70
2019-06-20T08:15:14.880Z,16.17
2019-06-20T08:17:47.350Z,17.17
2019-06-20T08:20:17.722Z,16.60
2019-06-20T08:22:47.307Z,16.03
2019-06-20T08:25:16.786Z,14.43
2019-06-20T08:27:51.869Z,13.53
2019-06-20T08:30:28.928Z,12.03
2019-06-20T08:33:00.179Z,13.70
2019-06-20T08:35:30.999Z,12.33
2019-06-20T08:38:01.378Z,12.20
2019-06-20T08:40:33.289Z,12.50
2019-06-20T08:43:02.241Z,11.53
2019-06-20T08:45:33.477Z,14.20
2019-06-20T08:48:04.746Z,10.60
2019-06-20T08:50:33.952Z,10.37
2019-06-20T08:53:03.660Z,9.00
2019-06-20T08:55:32.827Z,9.10
2019-06-20T08:58:02.243Z,8.47
2019-06-20T09:00:33.676Z,8.97
2019-06-20T09:05:31.769Z,7.57
2019-06-20T09:10:42.798Z,6.90
2019-06-20T09:13:12.771Z,6.97
2019-06-20T09:15:42.318Z,7.60
2019-06-20T09:18:11.415Z,8.07
2019-06-20T09:20:40.310Z,8.20
2019-06-20T09:23:09.125Z,6.90
2019-06-20T09:25:37.839Z,9.37
2019-06-20T09:28:07.092Z,6.67
2019-06-20T09:30:36.838Z,6.50
2019-06-20T09:33:05.896Z,6.50
2019-06-20T09:35:34.976Z,7.53
2019-06-20T09:38:04.054Z,6.37
2019-06-20T09:40:32.917Z,7.60
2019-06-20T09:43:02.752Z,6.77
2019-06-20T09:45:32.230Z,6.17
2019-06-20T09:48:02.544Z,7.20
2019-06-20T09:50:33.320Z,7.20
2019-06-20T09:53:02.183Z,6.03
2019-06-20T09:55:30.860Z,6.10
2019-06-20T09:57:59.558Z,6.00
2019-06-20T10:00:29.276Z,6.80
2019-06-20T10:02:58.018Z,8.10
2019-06-20T10:05:26.770Z,7.40
2019-06-20T10:07:56.757Z,7.73
2019-06-20T10:10:30.000Z,7.37
2019-06-20T10:12:58.944Z,6.10
2019-06-20T10:15:30.317Z,5.93
2019-06-20T10:18:01.134Z,5.93
2019-06-20T10:20:29.924Z,7.17
2019-06-20T10:22:58.641Z,6.10
2019-06-20T10:25:27.600Z,5.53
2019-06-20T10:27:57.709Z,6.30
2019-06-20T10:30:28.203Z,5.97
2019-06-20T10:32:57.696Z,5.77
2019-06-20T10:35:26.839Z,5.30
2019-06-20T10:37:57.219Z,5.20
2019-06-20T10:40:26.446Z,5.30
2019-06-20T10:42:56.663Z,5.33
2019-06-20T10:45:26.298Z,5.30
2019-06-20T10:47:55.275Z,5.90
2019-06-20T10:50:24.498Z,5.10
2019-06-20T10:52:54.106Z,4.00
2019-06-20T10:55:23.276Z,5.77
2019-06-20T10:57:52.123Z,5.53
2019-06-20T11:00:30.763Z,7.50
2019-06-20T11:02:52.948Z,7.20
2019-06-20T11:05:21.890Z,7.43
2019-06-20T11:07:51.050Z,6.70
2019-06-20T11:10:20.523Z,5.63
2019-06-20T11:12:54.918Z,4.90
2019-06-20T11:15:20.870Z,5.47
2019-06-20T11:17:49.743Z,5.40
2019-06-20T11:20:18.894Z,6.10
2019-06-20T11:22:47.994Z,5.60
2019-06-20T11:25:19.365Z,5.30
2019-06-20T11:27:48.059Z,4.83
2019-06-20T11:30:22.657Z,5.27
2019-06-20T11:32:51.389Z,4.80
2019-06-20T11:35:20.078Z,4.70
2019-06-20T11:37:48.814Z,3.60
2019-06-20T11:40:18.982Z,5.10
2019-06-20T11:42:47.642Z,5.33
2019-06-20T11:45:16.814Z,5.40
2019-06-20T11:47:47.125Z,4.60
2019-06-20T11:50:17.140Z,4.93
2019-06-20T11:52:46.087Z,5.07
2019-06-20T11:55:15.130Z,4.80
2019-06-20T11:57:43.969Z,5.20
2019-06-20T12:00:13.765Z,4.37
2019-06-20T12:02:44.090Z,5.80
2019-06-20T12:05:14.756Z,5.83
2019-06-20T12:07:45.325Z,5.50
2019-06-20T12:10:14.591Z,4.83
2019-06-20T12:12:44.599Z,4.97
2019-06-20T12:15:17.137Z,4.77
2019-06-20T12:17:49.085Z,5.40
2019-06-20T12:20:18.756Z,3.90
2019-06-20T12:22:50.504Z,4.90
2019-06-20T12:25:20.578Z,4.53
2019-06-20T12:27:49.781Z,5.30
2019-06-20T12:30:20.042Z,4.23
2019-06-20T12:32:49.405Z,4.20
2019-06-20T12:35:19.158Z,5.27
2019-06-20T12:37:48.034Z,4.90
2019-06-20T12:40:17.502Z,4.20
2019-06-20T12:42:46.818Z,4.13
2019-06-20T12:45:16.257Z,4.47
2019-06-20T12:47:46.046Z,3.83
2019-06-20T12:50:15.715Z,4.53
2019-06-20T12:52:45.702Z,4.47
2019-06-20T12:55:16.507Z,4.80
2019-06-20T12:57:46.333Z,5.40
2019-06-20T13:00:16.363Z,4.60
2019-06-20T13:02:45.522Z,4.10
2019-06-20T13:05:16.161Z,4.10
2019-06-20T13:07:46.225Z,4.47
2019-06-20T13:10:16.050Z,3.90
2019-06-20T13:12:46.343Z,4.40
2019-06-20T13:15:16.150Z,4.17
2019-06-20T13:17:45.077Z,3.90
2019-06-20T13:20:14.612Z,4.10
2019-06-20T13:22:44.831Z,5.00
2019-06-20T13:25:14.674Z,4.37
2019-06-20T13:27:43.566Z,5.50
2019-06-20T13:30:13.314Z,5.80
2019-06-20T13:32:43.309Z,6.30
2019-06-20T13:35:14.292Z,6.43
2019-06-20T13:37:43.530Z,8.47
2019-06-20T13:40:14.308Z,9.37
2019-06-20T13:42:44.186Z,9.87
2019-06-20T13:45:24.939Z,10.03
2019-06-20T13:47:54.092Z,10.43
2019-06-20T13:50:26.722Z,10.87
2019-06-20T13:52:55.396Z,9.90
2019-06-20T13:55:24.324Z,11.10
2019-06-20T13:57:53.195Z,58.33
2019-06-20T14:00:23.985Z,13.87
2019-06-20T14:02:52.870Z,13.33
2019-06-20T14:05:21.701Z,12.77
2019-06-20T14:07:54.304Z,17.50
2019-06-20T14:10:22.051Z,12.23
2019-06-20T14:12:50.821Z,11.60
2019-06-20T14:15:20.237Z,11.30
2019-06-20T14:17:49.802Z,11.10
2019-06-20T14:20:19.377Z,12.10
2019-06-20T14:22:49.436Z,11.00
2019-06-20T14:25:19.944Z,10.30
2019-06-20T14:27:49.201Z,11.03
2019-06-20T14:30:19.120Z,12.70
2019-06-20T14:32:49.267Z,12.03
2019-06-20T14:35:19.150Z,10.50
2019-06-20T14:37:49.288Z,10.43
2019-06-20T14:40:18.698Z,9.97
2019-06-20T14:42:47.885Z,11.07
2019-06-20T14:45:17.572Z,12.80
2019-06-20T14:47:46.576Z,11.03
2019-06-20T14:50:17.340Z,12.07
2019-06-20T14:52:48.045Z,12.07
2019-06-20T14:55:16.952Z,11.20
2019-06-20T14:57:48.257Z,11.20
2019-06-20T15:00:17.468Z,11.80
2019-06-20T15:02:47.653Z,10.10
2019-06-20T15:05:18.428Z,12.27
2019-06-20T15:07:48.990Z,10.93
2019-06-20T15:10:18.550Z,9.60
2019-06-20T15:12:48.384Z,10.27
2019-06-20T15:15:18.175Z,10.20
2019-06-20T15:17:49.731Z,9.00
2019-06-20T15:20:19.952Z,8.17
2019-06-20T15:22:49.304Z,9.20
2019-06-20T15:25:19.235Z,7.80
2019-06-20T15:27:50.265Z,8.43
2019-06-20T15:30:19.035Z,8.43
2019-06-20T15:33:00.954Z,8.27
2019-06-20T15:35:18.597Z,9.20
2019-06-20T15:37:48.459Z,7.50
2019-06-20T15:40:19.258Z,7.87
2019-06-20T15:42:49.559Z,7.93
2019-06-20T15:45:18.973Z,8.37
2019-06-20T15:47:47.687Z,8.80
2019-06-20T15:50:16.643Z,8.67
2019-06-20T15:52:45.495Z,6.90
2019-06-20T15:55:17.123Z,7.67
2019-06-20T15:57:45.830Z,7.60
2019-06-20T16:00:15.939Z,7.63
2019-06-20T16:02:44.664Z,7.77
2019-06-20T16:05:13.852Z,8.33
2019-06-20T16:07:42.665Z,9.03
2019-06-20T16:10:12.483Z,7.23
2019-06-20T16:12:41.204Z,7.87
2019-06-20T16:15:10.880Z,7.40
2019-06-20T16:17:39.584Z,7.10
2019-06-20T16:20:10.086Z,7.27
2019-06-20T16:22:38.811Z,5.40
2019-06-20T16:25:08.412Z,7.60
2019-06-20T16:27:37.462Z,8.23
2019-06-20T16:30:10.945Z,6.23
2019-06-20T16:32:39.791Z,6.77
2019-06-20T16:35:09.077Z,6.30
2019-06-20T16:37:37.881Z,6.93
2019-06-20T16:40:12.329Z,6.70
2019-06-20T16:42:41.305Z,6.13
2019-06-20T16:45:11.151Z,5.20
2019-06-20T16:47:40.110Z,5.33
2019-06-20T16:50:09.552Z,4.37
2019-06-20T16:52:38.230Z,5.47
2019-06-20T16:55:08.241Z,3.60
2019-06-20T16:57:43.041Z,3.60
2019-06-20T17:00:12.465Z,3.93
2019-06-20T17:02:41.179Z,3.30
2019-06-20T17:05:10.355Z,3.80
2019-06-20T17:07:39.056Z,3.93
2019-06-20T17:10:09.226Z,3.80
2019-06-20T17:12:38.099Z,4.13
2019-06-20T17:15:08.393Z,3.73
2019-06-20T17:17:37.105Z,4.40
2019-06-20T17:20:08.518Z,3.60
2019-06-20T17:22:37.226Z,3.73
2019-06-20T17:25:07.540Z,3.90
2019-06-20T17:27:36.386Z,4.30
2019-06-20T17:30:08.040Z,4.83
2019-06-20T17:32:36.727Z,4.03
2019-06-20T17:35:07.524Z,3.80
2019-06-20T17:37:36.251Z,4.13
2019-06-20T17:40:10.357Z,4.23
2019-06-20T17:42:39.238Z,4.20
2019-06-20T17:45:08.963Z,3.70
2019-06-20T17:47:37.664Z,4.33
2019-06-20T17:50:07.856Z,3.70
2019-06-20T17:52:36.548Z,4.47
2019-06-20T17:55:07.308Z,3.70
2019-06-20T17:57:36.811Z,4.47
2019-06-20T18:00:10.784Z,4.70
2019-06-20T18:02:39.471Z,4.93
2019-06-20T18:05:08.796Z,4.80
2019-06-20T18:07:37.507Z,5.00
2019-06-20T18:10:06.990Z,4.50
2019-06-20T18:12:35.702Z,4.10
2019-06-20T18:15:06.589Z,3.10
2019-06-20T18:17:35.336Z,3.00
2019-06-20T18:20:08.530Z,2.80
2019-06-20T18:22:37.244Z,3.20
2019-06-20T18:25:07.452Z,3.00
2019-06-20T18:27:36.243Z,2.77
2019-06-20T18:30:10.072Z,2.80
2019-06-20T18:32:38.855Z,3.30
2019-06-20T18:35:08.569Z,2.60
2019-06-20T18:37:37.574Z,2.80
2019-06-20T18:40:08.556Z,3.77
2019-06-20T18:42:37.266Z,4.10
2019-06-20T18:45:07.404Z,3.00
2019-06-20T18:47:36.227Z,3.17
2019-06-20T18:50:07.042Z,3.87
2019-06-20T18:52:51.170Z,4.20
2019-06-20T18:55:08.472Z,3.67
2019-06-20T18:57:37.181Z,4.10
2019-06-20T19:00:11.053Z,3.67
2019-06-20T19:02:40.183Z,4.47
2019-06-20T19:05:12.190Z,5.00
2019-06-20T19:07:40.897Z,4.80
2019-06-20T19:10:10.479Z,3.60
2019-06-20T19:12:39.182Z,3.70
2019-06-20T19:15:10.098Z,3.30
2019-06-20T19:17:39.175Z,3.47
2019-06-20T19:20:08.480Z,4.13
2019-06-20T19:22:37.157Z,3.90
2019-06-20T19:25:09.722Z,3.67
2019-06-20T19:27:46.259Z,3.40
2019-06-20T19:30:10.887Z,3.67
2019-06-20T19:32:39.971Z,4.07
2019-06-20T19:35:10.538Z,3.60
2019-06-20T19:37:39.450Z,3.37
2019-06-20T19:40:09.620Z,2.73
2019-06-20T19:42:38.503Z,3.30
2019-06-20T19:45:10.485Z,3.80
2019-06-20T19:47:39.572Z,3.50
2019-06-20T19:50:08.863Z,3.60
2019-06-20T19:52:37.964Z,3.90
2019-06-20T19:55:07.063Z,3.73
2019-06-20T19:57:35.761Z,3.67
2019-06-20T20:00:06.697Z,3.30
2019-06-20T20:02:35.981Z,3.40
2019-06-20T20:05:18.478Z,2.97
2019-06-20T20:07:37.387Z,3.23
2019-06-20T20:10:08.270Z,3.30
2019-06-20T20:12:36.953Z,2.70
2019-06-20T20:15:08.147Z,3.00
2019-06-20T20:17:36.817Z,3.30
2019-06-20T20:20:07.744Z,2.97
2019-06-20T20:22:36.539Z,3.30
2019-06-20T20:25:09.144Z,3.07
2019-06-20T20:27:37.927Z,2.50
2019-06-20T20:30:11.473Z,2.60
2019-06-20T20:32:40.311Z,3.50
2019-06-20T20:35:09.116Z,2.83
2019-06-20T20:37:37.789Z,3.17
2019-06-20T20:40:08.383Z,2.83
2019-06-20T20:42:37.055Z,3.27
2019-06-20T20:45:07.650Z,3.30
2019-06-20T20:47:36.357Z,3.80
2019-06-20T20:50:06.823Z,3.40
2019-06-20T20:52:35.508Z,2.60
2019-06-20T20:55:06.321Z,3.20
2019-06-20T20:57:35.012Z,3.20
2019-06-20T21:00:06.830Z,4.57
2019-06-20T21:02:35.645Z,4.63
2019-06-20T21:05:07.008Z,4.20
2019-06-20T21:07:38.968Z,3.63
2019-06-20T21:10:07.286Z,3.77
2019-06-20T21:12:35.960Z,3.93
2019-06-20T21:15:07.152Z,4.17
2019-06-20T21:17:35.887Z,4.20
2019-06-20T21:20:09.410Z,5.70
2019-06-20T21:22:38.081Z,4.73
2019-06-20T21:25:07.857Z,5.20
2019-06-20T21:27:36.631Z,5.20
2019-06-20T21:30:09.076Z,4.77
2019-06-20T21:32:37.764Z,4.33
2019-06-20T21:35:07.590Z,4.70
2019-06-20T21:37:36.253Z,4.83
2019-06-20T21:40:08.446Z,5.00
2019-06-20T21:42:37.329Z,4.80
2019-06-20T21:45:08.282Z,4.40
2019-06-20T21:47:36.990Z,3.67
2019-06-20T21:50:08.383Z,5.03
2019-06-20T21:52:37.695Z,6.10
2019-06-20T21:55:07.194Z,5.10
2019-06-20T21:57:36.248Z,5.30
2019-06-20T22:00:27.770Z,7.23
2019-06-20T22:02:56.438Z,7.40
2019-06-20T22:05:25.119Z,6.20
2019-06-20T22:07:53.831Z,5.57
2019-06-20T22:10:22.930Z,4.97
2019-06-20T22:12:51.615Z,5.17
2019-06-20T22:15:21.136Z,5.23
2019-06-20T22:17:49.797Z,6.17
2019-06-20T22:20:19.666Z,7.97
2019-06-20T22:22:48.523Z,6.10
2019-06-20T22:25:17.625Z,6.50
2019-06-20T22:27:46.314Z,5.60
2019-06-20T22:30:16.053Z,5.20
2019-06-20T22:32:44.839Z,5.90
2019-06-20T22:35:13.980Z,7.80
2019-06-20T22:37:42.705Z,6.67
2019-06-20T22:40:12.272Z,5.70
2019-06-20T22:42:40.967Z,7.83
2019-06-20T22:45:11.258Z,7.70
2019-06-20T22:47:39.974Z,8.33
2019-06-20T22:50:10.078Z,9.77
2019-06-20T22:52:38.734Z,9.20
2019-06-20T22:55:08.138Z,8.60
2019-06-20T22:57:36.815Z,8.90
2019-06-20T23:00:08.438Z,7.40
2019-06-20T23:02:37.254Z,8.03
2019-06-20T23:05:11.037Z,8.70
2019-06-20T23:07:39.916Z,7.97
2019-06-20T23:10:10.835Z,8.70
2019-06-20T23:12:39.548Z,9.10
2019-06-20T23:15:09.239Z,9.37
2019-06-20T23:17:37.926Z,7.50
2019-06-20T23:20:10.667Z,7.83
2019-06-20T23:22:39.398Z,7.17
2019-06-20T23:25:09.463Z,8.73
2019-06-20T23:27:38.186Z,7.47
2019-06-20T23:30:10.753Z,7.60
2019-06-20T23:32:39.452Z,7.93
2019-06-20T23:35:09.923Z,9.57
2019-06-20T23:37:38.628Z,10.60
2019-06-20T23:40:11.663Z,8.87
2019-06-20T23:42:40.529Z,11.00
2019-06-20T23:45:10.008Z,9.50
2019-06-20T23:47:38.667Z,8.60
2019-06-20T23:50:18.294Z,10.23
2019-06-20T23:53:09.026Z,16.10
2019-06-20T23:55:37.736Z,13.80
2019-06-20T23:58:06.601Z,12.67
